createdAt,value
2023-06-17T00:00:47.409Z,100415.78
2023-06-17T00:03:17.313Z,100419.59
2023-06-17T00:05:47.281Z,100412.66
2023-06-17T00:08:19.670Z,100421.69
2023-06-17T00:10:49.567Z,100413.94
2023-06-17T00:13:21.028Z,100408.91
2023-06-17T00:15:54.751Z,100413.69
2023-06-17T00:18:25.700Z,100410.47
2023-06-17T00:20:59.097Z,100409.94
2023-06-17T00:23:32.242Z,100409.34
2023-06-17T00:26:02.007Z,100406.13
2023-06-17T00:28:31.736Z,100403.66
2023-06-17T00:31:01.493Z,100397.75
2023-06-17T00:33:31.324Z,100394.50
2023-06-17T00:36:01.040Z,100394.72
2023-06-17T00:38:33.351Z,100400.25
2023-06-17T00:41:03.144Z,100394.34
2023-06-17T00:43:33.038Z,100395.50
2023-06-17T00:46:03.163Z,100397.50
2023-06-17T00:48:33.005Z,100399.50
2023-06-17T00:51:03.692Z,100394.34
2023-06-17T00:53:36.289Z,100397.22
2023-06-17T00:56:06.217Z,100393.03
2023-06-17T00:58:36.137Z,100393.22
2023-06-17T01:01:06.672Z,100393.53
2023-06-17T01:03:36.487Z,100386.66
2023-06-17T01:06:14.184Z,100388.66
2023-06-17T01:08:49.209Z,100388.91
2023-06-17T01:11:21.749Z,100382.16
2023-06-17T01:13:54.288Z,100389.50
2023-06-17T01:16:24.680Z,100386.22
2023-06-17T01:18:54.694Z,100388.31
2023-06-17T01:21:24.596Z,100378.88
2023-06-17T01:24:01.761Z,100387.25
2023-06-17T01:26:34.121Z,100377.81
2023-06-17T01:29:04.189Z,100385.31
2023-06-17T01:31:34.012Z,100371.44
2023-06-17T01:34:04.144Z,100377.13
2023-06-17T01:36:35.689Z,100383.66
2023-06-17T01:39:06.909Z,100379.56
2023-06-17T01:41:43.702Z,100379.81
2023-06-17T01:44:15.073Z,100381.91
2023-06-17T01:46:45.430Z,100383.88
2023-06-17T01:49:15.180Z,100381.59
2023-06-17T01:51:44.957Z,100384.50
2023-06-17T01:54:14.720Z,100382.13
2023-06-17T01:56:47.540Z,100385.03
2023-06-17T01:59:17.508Z,100386.06
2023-06-17T02:01:47.220Z,100381.03
2023-06-17T02:04:17.007Z,100383.88
2023-06-17T02:06:46.752Z,100377.84
2023-06-17T02:09:17.760Z,100392.09
2023-06-17T02:11:50.123Z,100389.63
2023-06-17T02:14:19.840Z,100389.69
2023-06-17T02:16:50.501Z,100389.69
2023-06-17T02:19:20.335Z,100382.56
2023-06-17T02:21:50.346Z,100394.19
2023-06-17T02:24:20.121Z,100387.31
2023-06-17T02:26:52.583Z,100388.44
2023-06-17T02:29:22.337Z,100394.69
2023-06-17T02:31:52.802Z,100389.47
2023-06-17T02:34:23.160Z,100394.00
2023-06-17T02:36:52.899Z,100393.16
2023-06-17T02:39:22.949Z,100392.38
2023-06-17T02:41:55.274Z,100395.91
2023-06-17T02:44:25.060Z,100389.69
2023-06-17T02:46:55.421Z,100390.56
2023-06-17T02:49:25.276Z,100389.59
2023-06-17T02:51:55.069Z,100382.50
2023-06-17T02:54:24.832Z,100393.06
2023-06-17T02:56:57.300Z,100391.44
2023-06-17T02:59:27.157Z,100392.38
2023-06-17T03:02:00.284Z,100402.25
2023-06-17T03:04:36.020Z,100391.78
2023-06-17T03:07:06.020Z,100398.94
2023-06-17T03:09:36.371Z,100396.47
2023-06-17T03:12:10.615Z,100381.63
2023-06-17T03:14:40.318Z,100382.81
2023-06-17T03:17:14.966Z,100385.72
2023-06-17T03:19:45.088Z,100389.31
2023-06-17T03:22:15.094Z,100391.97
2023-06-17T03:24:50.461Z,100387.53
2023-06-17T03:27:23.016Z,100382.91
2023-06-17T03:29:52.848Z,100387.88
2023-06-17T03:32:22.571Z,100384.19
2023-06-17T03:34:54.161Z,100375.28
2023-06-17T03:37:24.071Z,100383.16
2023-06-17T03:39:54.525Z,100376.91
2023-06-17T03:42:27.414Z,100377.66
2023-06-17T03:44:57.221Z,100372.25
2023-06-17T03:47:26.949Z,100371.34
2023-06-17T03:49:57.406Z,100371.16
2023-06-17T03:52:27.310Z,100371.00
2023-06-17T03:54:57.383Z,100370.75
2023-06-17T03:57:31.310Z,100365.16
2023-06-17T04:00:01.329Z,100362.25
2023-06-17T04:02:33.176Z,100362.81
2023-06-17T04:05:03.560Z,100361.53
2023-06-17T04:07:34.350Z,100363.84
2023-06-17T04:10:07.585Z,100358.06
2023-06-17T04:12:41.121Z,100354.97
2023-06-17T04:15:12.167Z,100354.50
2023-06-17T04:17:42.132Z,100349.56
2023-06-17T04:20:14.093Z,100360.53
2023-06-17T04:22:45.335Z,100354.84
2023-06-17T04:25:16.814Z,100359.44
2023-06-17T04:27:54.701Z,100360.22
2023-06-17T04:30:26.592Z,100365.53
2023-06-17T04:32:59.700Z,100361.22
2023-06-17T04:35:29.929Z,100362.47
2023-06-17T04:38:04.126Z,100357.59
2023-06-17T04:40:33.911Z,100353.59
2023-06-17T04:43:07.658Z,100350.44
2023-06-17T04:45:37.618Z,100342.81
2023-06-17T04:48:10.040Z,100347.53
2023-06-17T04:50:41.283Z,100347.03
2023-06-17T04:53:11.566Z,100349.13
2023-06-17T04:55:41.702Z,100351.94
2023-06-17T04:58:16.180Z,100351.22
2023-06-17T05:00:51.190Z,100350.53
2023-06-17T05:03:25.233Z,100349.72
2023-06-17T05:05:55.732Z,100358.75
2023-06-17T05:08:27.166Z,100358.88
2023-06-17T05:10:57.199Z,100347.44
2023-06-17T05:13:29.614Z,100353.66
2023-06-17T05:15:59.829Z,100358.78
2023-06-17T05:18:31.527Z,100354.84
2023-06-17T05:21:01.508Z,100353.97
2023-06-17T05:23:31.210Z,100353.78
2023-06-17T05:26:01.006Z,100350.47
2023-06-17T05:28:33.669Z,100356.22
2023-06-17T05:31:03.607Z,100355.59
2023-06-17T05:33:33.612Z,100358.06
2023-06-17T05:36:03.364Z,100362.34
2023-06-17T05:38:33.954Z,100359.97
2023-06-17T05:41:04.625Z,100358.91
2023-06-17T05:43:37.751Z,100353.91
2023-06-17T05:46:07.558Z,100352.72
2023-06-17T05:48:37.242Z,100356.59
2023-06-17T05:51:07.103Z,100351.84
2023-06-17T05:53:36.859Z,100359.91
2023-06-17T05:56:06.928Z,100352.47
2023-06-17T05:58:39.764Z,100356.56
2023-06-17T06:01:17.333Z,100353.09
2023-06-17T06:03:47.127Z,100352.91
2023-06-17T06:06:16.966Z,100362.91
2023-06-17T06:08:47.020Z,100353.25
2023-06-17T06:11:16.753Z,100361.97
2023-06-17T06:13:49.106Z,100362.47
2023-06-17T06:16:18.875Z,100362.97
2023-06-17T06:18:48.600Z,100363.28
2023-06-17T06:21:18.448Z,100364.91
2023-06-17T06:23:48.218Z,100370.97
2023-06-17T06:26:18.484Z,100370.00
2023-06-17T06:28:50.789Z,100369.44
2023-06-17T06:31:20.881Z,100363.75
2023-06-17T06:33:51.172Z,100356.56
2023-06-17T06:36:20.921Z,100364.56
2023-06-17T06:38:51.665Z,100355.84
2023-06-17T06:41:22.584Z,100364.38
2023-06-17T06:44:03.490Z,100365.75
2023-06-17T06:46:35.452Z,100363.00
2023-06-17T06:49:05.314Z,100366.47
2023-06-17T06:51:37.364Z,100367.94
2023-06-17T06:54:07.985Z,100371.63
2023-06-17T06:56:37.732Z,100370.09
2023-06-17T06:59:10.370Z,100378.31
2023-06-17T07:01:40.195Z,100373.72
2023-06-17T07:04:11.588Z,100378.25
2023-06-17T07:06:41.841Z,100380.47
2023-06-17T07:09:15.797Z,100377.72
2023-06-17T07:11:45.517Z,100377.25
2023-06-17T07:14:18.174Z,100378.94
2023-06-17T07:16:48.379Z,100377.44
2023-06-17T07:19:18.297Z,100373.47
2023-06-17T07:21:49.982Z,100379.38
2023-06-17T07:24:19.840Z,100377.78
2023-06-17T07:26:49.609Z,100375.81
2023-06-17T07:29:21.978Z,100376.09
2023-06-17T07:31:51.759Z,100381.34
2023-06-17T07:34:22.397Z,100376.34
2023-06-17T07:36:54.044Z,100383.94
2023-06-17T07:39:24.064Z,100379.16
2023-06-17T07:41:53.811Z,100378.31
2023-06-17T07:44:26.126Z,100367.97
2023-06-17T07:46:56.774Z,100373.13
2023-06-17T07:49:27.037Z,100368.75
2023-06-17T07:51:56.758Z,100377.47
2023-06-17T07:54:26.663Z,100369.19
2023-06-17T07:56:56.442Z,100372.84
2023-06-17T07:59:30.096Z,100371.41
2023-06-17T08:01:59.867Z,100370.38
2023-06-17T08:04:29.638Z,100362.06
2023-06-17T08:06:59.347Z,100373.31
2023-06-17T08:09:29.078Z,100366.66
2023-06-17T08:11:59.165Z,100362.44
2023-06-17T08:14:31.522Z,100365.47
2023-06-17T08:17:01.245Z,100365.97
2023-06-17T08:19:31.129Z,100359.63
2023-06-17T08:22:01.470Z,100354.63
2023-06-17T08:24:31.229Z,100356.47
2023-06-17T08:27:01.213Z,100354.63
2023-06-17T08:29:33.520Z,100351.75
2023-06-17T08:32:03.303Z,100340.72
2023-06-17T08:34:33.910Z,100345.22
2023-06-17T08:37:05.069Z,100340.97
2023-06-17T08:39:40.484Z,100350.03
2023-06-17T08:42:10.985Z,100350.44
2023-06-17T08:44:46.679Z,100347.31
2023-06-17T08:47:18.778Z,100346.03
2023-06-17T08:49:48.842Z,100332.25
2023-06-17T08:52:19.232Z,100335.06
2023-06-17T08:54:49.369Z,100330.56
2023-06-17T08:57:19.171Z,100330.09
2023-06-17T08:59:51.528Z,100316.28
2023-06-17T09:02:21.518Z,100325.50
2023-06-17T09:04:51.499Z,100324.56
2023-06-17T09:07:21.544Z,100316.34
2023-06-17T09:09:54.751Z,100320.19
2023-06-17T09:12:26.695Z,100323.00
2023-06-17T09:15:00.264Z,100316.56
2023-06-17T09:17:32.081Z,100321.59
2023-06-17T09:20:11.891Z,100318.78
2023-06-17T09:22:46.427Z,100317.16
2023-06-17T09:25:17.152Z,100322.81
2023-06-17T09:28:06.050Z,100318.88
2023-06-17T09:30:44.913Z,100316.50
2023-06-17T09:33:21.700Z,100320.78
2023-06-17T09:35:51.708Z,100319.53
2023-06-17T09:38:21.489Z,100317.16
2023-06-17T09:40:53.019Z,100316.97
2023-06-17T09:43:28.595Z,100315.50
2023-06-17T09:46:03.361Z,100312.25
2023-06-17T09:48:34.172Z,100313.94
2023-06-17T09:51:06.776Z,100312.47
2023-06-17T09:53:38.586Z,100308.06
2023-06-17T09:56:12.697Z,100311.66
2023-06-17T09:58:44.759Z,100306.53
2023-06-17T10:01:17.545Z,100317.56
2023-06-17T10:03:47.913Z,100314.38
2023-06-17T10:06:20.729Z,100321.97
2023-06-17T10:08:52.128Z,100318.63
2023-06-17T10:11:22.688Z,100316.56
2023-06-17T10:13:56.742Z,100321.13
2023-06-17T10:16:32.182Z,100319.63
2023-06-17T10:19:04.664Z,100320.97
2023-06-17T10:21:34.144Z,100317.50
2023-06-17T10:24:04.624Z,100312.47
2023-06-17T10:26:34.732Z,100308.44
2023-06-17T10:29:08.152Z,100314.44
2023-06-17T10:31:44.320Z,100314.03
2023-06-17T10:34:17.926Z,100315.31
2023-06-17T10:36:52.645Z,100313.69
2023-06-17T10:39:22.441Z,100308.56
2023-06-17T10:42:04.889Z,100308.47
2023-06-17T10:44:47.131Z,100312.09
2023-06-17T10:47:26.727Z,100307.91
2023-06-17T10:49:58.338Z,100305.84
2023-06-17T10:52:28.092Z,100308.03
2023-06-17T10:54:58.905Z,100298.22
2023-06-17T10:57:35.860Z,100300.81
2023-06-17T11:00:11.543Z,100308.66
2023-06-17T11:02:44.043Z,100301.06
2023-06-17T11:05:13.954Z,100305.22
2023-06-17T11:07:44.045Z,100307.44
2023-06-17T11:10:13.981Z,100299.75
2023-06-17T11:12:43.754Z,100302.81
2023-06-17T11:15:13.786Z,100299.34
2023-06-17T11:17:46.199Z,100294.44
2023-06-17T11:20:16.200Z,100297.34
2023-06-17T11:22:45.981Z,100288.91
2023-06-17T11:25:15.856Z,100294.03
2023-06-17T11:27:47.838Z,100283.13
2023-06-17T11:30:18.255Z,100270.94
2023-06-17T11:32:52.423Z,100270.66
2023-06-17T11:35:22.327Z,100265.75
2023-06-17T11:37:52.897Z,100270.56
2023-06-17T11:40:23.150Z,100272.13
2023-06-17T11:42:53.999Z,100269.94
2023-06-17T11:45:24.237Z,100266.59
2023-06-17T11:47:56.608Z,100250.22
2023-06-17T11:50:31.982Z,100259.44
2023-06-17T11:53:01.830Z,100256.91
2023-06-17T11:55:35.561Z,100253.53
2023-06-17T11:58:07.224Z,100248.81
2023-06-17T12:00:39.192Z,100247.31
2023-06-17T12:03:12.341Z,100248.25
2023-06-17T12:05:43.258Z,100242.94
2023-06-17T12:08:13.112Z,100242.34
2023-06-17T12:10:42.876Z,100245.50
2023-06-17T12:13:16.357Z,100241.81
2023-06-17T12:15:46.875Z,100237.41
2023-06-17T12:18:20.115Z,100247.53
2023-06-17T12:20:52.906Z,100237.28
2023-06-17T12:23:22.935Z,100241.31
2023-06-17T12:25:52.697Z,100232.84
2023-06-17T12:28:24.716Z,100236.00
2023-06-17T12:30:54.461Z,100235.03
2023-06-17T12:33:26.797Z,100227.44
2023-06-17T12:35:56.530Z,100231.06
2023-06-17T12:38:29.474Z,100219.88
2023-06-17T12:41:00.401Z,100219.19
2023-06-17T12:43:30.370Z,100217.16
2023-06-17T12:46:00.915Z,100212.88
2023-06-17T12:48:34.966Z,100216.38
2023-06-17T12:51:04.861Z,100204.19
2023-06-17T12:53:34.692Z,100207.03
2023-06-17T12:56:04.668Z,100211.75
2023-06-17T12:58:34.463Z,100208.94
2023-06-17T13:01:04.214Z,100205.19
2023-06-17T13:03:38.037Z,100206.59
2023-06-17T13:06:08.014Z,100209.19
2023-06-17T13:08:38.414Z,100209.63
2023-06-17T13:11:08.128Z,100213.66
2023-06-17T13:13:39.038Z,100206.22
2023-06-17T13:16:09.245Z,100205.75
2023-06-17T13:18:43.135Z,100200.81
2023-06-17T13:21:12.881Z,100202.03
2023-06-17T13:23:42.810Z,100193.88
2023-06-17T13:26:12.781Z,100198.59
2023-06-17T13:28:42.641Z,100189.16
2023-06-17T13:31:12.526Z,100182.06
2023-06-17T13:33:44.844Z,100187.25
2023-06-17T13:36:14.695Z,100189.22
2023-06-17T13:38:44.429Z,100182.09
2023-06-17T13:41:14.147Z,100181.06
2023-06-17T13:43:44.577Z,100178.34
2023-06-17T13:46:14.386Z,100179.00
2023-06-17T13:48:46.730Z,100174.22
2023-06-17T13:51:16.457Z,100180.97
2023-06-17T13:53:46.509Z,100177.69
2023-06-17T13:56:17.768Z,100178.16
2023-06-17T13:58:47.785Z,100176.47
2023-06-17T14:01:17.561Z,100180.59
2023-06-17T14:03:50.009Z,100175.53
2023-06-17T14:06:20.966Z,100179.28
2023-06-17T14:08:50.821Z,100180.16
2023-06-17T14:11:20.582Z,100175.44
2023-06-17T14:13:50.343Z,100171.97
2023-06-17T14:16:20.139Z,100167.44
2023-06-17T14:18:52.956Z,100166.41
2023-06-17T14:21:27.966Z,100167.72
2023-06-17T14:24:07.927Z,100167.25
2023-06-17T14:26:39.247Z,100161.50
2023-06-17T14:29:10.806Z,100155.59
2023-06-17T14:31:40.992Z,100161.56
2023-06-17T14:34:13.292Z,100153.97
2023-06-17T14:36:43.031Z,100168.34
2023-06-17T14:39:12.776Z,100163.44
2023-06-17T14:41:42.757Z,100156.44
2023-06-17T14:44:12.499Z,100158.97
2023-06-17T14:46:42.214Z,100157.28
2023-06-17T14:49:14.641Z,100158.22
2023-06-17T14:51:44.973Z,100149.97
2023-06-17T14:54:14.706Z,100149.88
2023-06-17T14:56:44.651Z,100158.66
2023-06-17T14:59:14.365Z,100155.84
2023-06-17T15:01:44.201Z,100152.53
2023-06-17T15:04:16.748Z,100149.25
2023-06-17T15:06:46.842Z,100150.56
2023-06-17T15:09:29.180Z,100156.72
2023-06-17T15:12:00.328Z,100154.16
2023-06-17T15:14:31.789Z,100149.91
2023-06-17T15:17:02.175Z,100159.78
2023-06-17T15:19:34.866Z,100149.44
2023-06-17T15:22:04.659Z,100141.56
2023-06-17T15:24:35.095Z,100141.25
2023-06-17T15:27:06.829Z,100144.56
2023-06-17T15:29:36.607Z,100133.00
2023-06-17T15:32:07.142Z,100136.59
2023-06-17T15:34:39.488Z,100138.28
2023-06-17T15:37:10.005Z,100133.84
2023-06-17T15:39:39.778Z,100134.50
2023-06-17T15:42:10.061Z,100133.09
2023-06-17T15:44:39.813Z,100135.63
2023-06-17T15:47:09.815Z,100138.00
2023-06-17T15:49:42.171Z,100136.94
2023-06-17T15:52:11.952Z,100129.84
2023-06-17T15:54:41.685Z,100126.16
2023-06-17T15:57:14.989Z,100126.72
2023-06-17T15:59:44.915Z,100119.97
2023-06-17T16:02:14.912Z,100116.22
2023-06-17T16:04:49.920Z,100115.00
2023-06-17T16:07:19.727Z,100113.69
2023-06-17T16:09:51.662Z,100122.38
2023-06-17T16:12:22.781Z,100117.69
2023-06-17T16:14:52.517Z,100115.91
2023-06-17T16:17:22.447Z,100111.88
2023-06-17T16:19:54.916Z,100112.69
2023-06-17T16:22:24.723Z,100108.31
2023-06-17T16:24:54.478Z,100106.59
2023-06-17T16:27:24.233Z,100115.78
2023-06-17T16:29:53.968Z,100110.53
2023-06-17T16:32:23.743Z,100112.59
2023-06-17T16:34:56.036Z,100112.75
2023-06-17T16:37:25.870Z,100105.63
2023-06-17T16:39:55.595Z,100114.81
2023-06-17T16:42:25.572Z,100113.50
2023-06-17T16:44:55.277Z,100114.72
2023-06-17T16:47:25.256Z,100115.91
2023-06-17T16:49:57.654Z,100108.78
2023-06-17T16:52:27.510Z,100114.22
2023-06-17T16:54:57.293Z,100109.63
2023-06-17T16:57:27.015Z,100110.47
2023-06-17T16:59:56.808Z,100112.34
2023-06-17T17:02:26.746Z,100105.78
2023-06-17T17:04:59.225Z,100114.84
2023-06-17T17:07:28.970Z,100111.34
2023-06-17T17:09:59.123Z,100112.44
2023-06-17T17:12:28.890Z,100115.22
2023-06-17T17:14:58.686Z,100120.53
2023-06-17T17:17:28.514Z,100117.50
2023-06-17T17:20:01.708Z,100125.13
2023-06-17T17:22:31.671Z,100125.50
2023-06-17T17:25:01.426Z,100118.53
2023-06-17T17:27:31.190Z,100118.91
2023-06-17T17:30:00.908Z,100118.59
2023-06-17T17:32:30.926Z,100118.28
2023-06-17T17:35:03.265Z,100118.63
2023-06-17T17:37:34.751Z,100125.63
2023-06-17T17:40:04.619Z,100129.72
2023-06-17T17:42:34.366Z,100133.81
2023-06-17T17:45:04.072Z,100123.66
2023-06-17T17:47:33.897Z,100124.38
2023-06-17T17:50:06.504Z,100130.69
2023-06-17T17:52:36.794Z,100132.59
2023-06-17T17:55:06.667Z,100132.59
2023-06-17T17:57:36.417Z,100135.69
2023-06-17T18:00:06.815Z,100134.00
2023-06-17T18:02:41.355Z,100132.31
2023-06-17T18:05:13.919Z,100127.91
2023-06-17T18:07:43.634Z,100120.66
2023-06-17T18:10:13.903Z,100128.63
2023-06-17T18:12:43.663Z,100127.59
2023-06-17T18:15:14.530Z,100134.88
2023-06-17T18:17:44.276Z,100130.47
2023-06-17T18:20:16.749Z,100131.31
2023-06-17T18:22:46.936Z,100133.00
2023-06-17T18:25:16.677Z,100132.97
2023-06-17T18:27:46.398Z,100131.28
2023-06-17T18:30:16.567Z,100128.56
2023-06-17T18:32:46.319Z,100132.13
2023-06-17T18:35:18.957Z,100132.06
2023-06-17T18:37:48.664Z,100130.16
2023-06-17T18:40:18.546Z,100129.13
2023-06-17T18:42:48.482Z,100132.66
2023-06-17T18:45:18.432Z,100132.63
2023-06-17T18:47:48.253Z,100130.72
2023-06-17T18:50:21.001Z,100129.84
2023-06-17T18:52:51.295Z,100134.41
2023-06-17T18:55:21.154Z,100131.78
2023-06-17T18:57:50.872Z,100135.44
2023-06-17T19:00:21.477Z,100134.88
2023-06-17T19:02:51.530Z,100135.81
2023-06-17T19:05:24.010Z,100134.06
2023-06-17T19:07:53.767Z,100133.31
2023-06-17T19:10:23.848Z,100137.78
2023-06-17T19:12:53.938Z,100145.00
2023-06-17T19:15:24.329Z,100136.16
2023-06-17T19:18:00.768Z,100144.44
2023-06-17T19:20:33.133Z,100148.22
2023-06-17T19:23:02.889Z,100142.22
2023-06-17T19:25:32.603Z,100145.13
2023-06-17T19:28:02.687Z,100151.88
2023-06-17T19:30:32.420Z,100149.56
2023-06-17T19:33:02.212Z,100160.66
2023-06-17T19:35:34.600Z,100152.94
2023-06-17T19:38:04.347Z,100147.00
2023-06-17T19:40:34.075Z,100158.00
2023-06-17T19:43:03.805Z,100157.16
2023-06-17T19:45:34.467Z,100156.34
2023-06-17T19:48:05.294Z,100155.38
2023-06-17T19:50:38.791Z,100164.34
2023-06-17T19:53:08.494Z,100163.47
2023-06-17T19:55:38.573Z,100165.19
2023-06-17T19:58:08.348Z,100162.47
2023-06-17T20:00:39.086Z,100160.50
2023-06-17T20:03:08.958Z,100173.09
2023-06-17T20:05:41.368Z,100181.19
2023-06-17T20:08:11.118Z,100172.28
2023-06-17T20:10:42.468Z,100174.81
2023-06-17T20:13:14.293Z,100174.63
2023-06-17T20:15:44.561Z,100178.97
2023-06-17T20:18:14.386Z,100181.50
2023-06-17T20:20:46.745Z,100179.47
2023-06-17T20:23:16.465Z,100175.78
2023-06-17T20:25:46.246Z,100179.88
2023-06-17T20:28:16.024Z,100181.41
2023-06-17T20:30:46.315Z,100182.69
2023-06-17T20:33:16.017Z,100179.66
2023-06-17T20:35:49.667Z,100170.41
2023-06-17T20:38:19.482Z,100174.63
2023-06-17T20:40:49.210Z,100176.16
2023-06-17T20:43:19.118Z,100165.94
2023-06-17T20:45:51.003Z,100174.50
2023-06-17T20:48:21.000Z,100181.50
2023-06-17T20:50:53.355Z,100170.00
2023-06-17T20:53:23.110Z,100171.50
2023-06-17T20:55:52.857Z,100175.00
2023-06-17T20:58:22.594Z,100165.84
2023-06-17T21:00:52.481Z,100166.63
2023-06-17T21:03:22.279Z,100166.56
2023-06-17T21:05:54.605Z,100170.00
2023-06-17T21:08:24.317Z,100162.97
2023-06-17T21:10:54.010Z,100164.44
2023-06-17T21:13:23.767Z,100166.91
2023-06-17T21:15:54.072Z,100165.84
2023-06-17T21:18:24.746Z,100158.41
2023-06-17T21:20:57.081Z,100162.31
2023-06-17T21:23:27.710Z,100164.50
2023-06-17T21:26:00.505Z,100165.03
2023-06-17T21:28:30.741Z,100160.00
2023-06-17T21:31:00.661Z,100162.25
2023-06-17T21:33:30.393Z,100163.47
2023-06-17T21:36:02.735Z,100166.50
2023-06-17T21:38:32.479Z,100166.00
2023-06-17T21:41:02.273Z,100162.88
2023-06-17T21:43:33.558Z,100162.38
2023-06-17T21:46:03.540Z,100171.88
2023-06-17T21:48:34.546Z,100167.00
2023-06-17T21:51:09.238Z,100165.75
2023-06-17T21:53:39.521Z,100172.56
2023-06-17T21:56:09.253Z,100163.28
2023-06-17T21:58:38.961Z,100166.44
2023-06-17T22:01:08.721Z,100158.03
2023-06-17T22:03:39.946Z,100164.72
2023-06-17T22:06:12.456Z,100164.94
2023-06-17T22:08:43.921Z,100170.78
2023-06-17T22:11:14.310Z,100170.16
2023-06-17T22:13:44.080Z,100165.03
2023-06-17T22:16:14.133Z,100171.47
2023-06-17T22:18:44.487Z,100171.97
2023-06-17T22:21:17.018Z,100174.97
2023-06-17T22:23:46.961Z,100167.31
2023-06-17T22:26:16.867Z,100176.53
2023-06-17T22:28:46.572Z,100179.53
2023-06-17T22:31:16.726Z,100179.78
2023-06-17T22:33:46.569Z,100175.63
2023-06-17T22:36:18.880Z,100165.28
2023-06-17T22:38:48.581Z,100168.28
2023-06-17T22:41:18.330Z,100167.66
2023-06-17T22:43:48.024Z,100158.88
2023-06-17T22:46:18.072Z,100158.66
2023-06-17T22:48:47.808Z,100163.78
2023-06-17T22:51:20.183Z,100155.41
2023-06-17T22:53:49.893Z,100161.28
2023-06-17T22:56:19.720Z,100160.91
2023-06-17T22:58:49.445Z,100158.75
2023-06-17T23:01:19.216Z,100162.78
2023-06-17T23:03:49.113Z,100154.44
2023-06-17T23:06:21.496Z,100156.88
2023-06-17T23:08:51.345Z,100159.28
2023-06-17T23:11:21.626Z,100155.66
2023-06-17T23:13:52.189Z,100159.06
2023-06-17T23:16:21.918Z,100153.50
2023-06-17T23:18:51.682Z,100155.16
2023-06-17T23:21:24.997Z,100154.22
2023-06-17T23:23:55.546Z,100145.53
2023-06-17T23:26:25.885Z,100154.06
2023-06-17T23:28:57.728Z,100147.34
2023-06-17T23:31:27.903Z,100152.31
2023-06-17T23:33:57.597Z,100151.94
2023-06-17T23:36:30.403Z,100146.81
2023-06-17T23:39:01.056Z,100148.63
2023-06-17T23:41:30.989Z,100146.81
2023-06-17T23:44:00.707Z,100151.28
2023-06-17T23:46:30.996Z,100143.63
2023-06-17T23:49:00.771Z,100149.94
2023-06-17T23:51:33.161Z,100144.72
2023-06-17T23:54:02.934Z,100146.53
2023-06-17T23:56:32.695Z,100146.31
2023-06-17T23:59:02.421Z,100142.53
